Time;durP1;ratioP1;P1;durP2;ratioP2;P2;SDS_P1;SDS_P2;PMS_P1;PMS_P2;Temp;Humidity;BMP_temperature;BMP_pressure;BME280_temperature;BME280_humidity;BME280_pressure;Samples;Min_cycle;Max_cycle;Signal;HPM_P1;HPM_P2
2021/09/28 00:00:13;;;;;;;0.20;0.20;;;;;;;0.64;60.52;99338.41;5053664;28;20045;-65
2021/09/28 00:02:39;;;;;;;0.30;0.30;;;;;;;0.60;60.63;99337.03;5054411;28;20094;-65
2021/09/28 00:05:06;;;;;;;0.30;0.30;;;;;;;0.58;60.74;99336.34;5054189;28;20128;-64
2021/09/28 00:07:32;;;;;;;0.20;0.20;;;;;;;0.53;60.75;99341.41;5053893;28;20110;-65
2021/09/28 00:09:58;;;;;;;0.20;0.20;;;;;;;0.51;60.77;99336.13;5053862;28;20068;-64
2021/09/28 00:12:24;;;;;;;0.20;0.20;;;;;;;0.47;60.85;99342.88;5054101;28;20033;-63
2021/09/28 00:14:49;;;;;;;0.20;0.20;;;;;;;0.42;60.90;99341.63;5051931;28;20041;-64
2021/09/28 00:17:15;;;;;;;0.30;0.30;;;;;;;0.38;60.80;99337.53;5053920;28;20045;-65
2021/09/28 00:19:41;;;;;;;0.30;0.30;;;;;;;0.31;61.17;99338.19;5053618;28;20048;-64
2021/09/28 00:22:07;;;;;;;0.30;0.30;;;;;;;0.26;61.16;99340.47;5054120;28;20172;-64
2021/09/28 00:24:36;;;;;;;0.35;0.35;;;;;;;0.20;61.17;99333.00;5053749;28;20621;-65
2021/09/28 00:27:02;;;;;;;0.20;0.20;;;;;;;0.14;61.35;99328.22;5053872;28;20518;-65
2021/09/28 00:29:28;;;;;;;0.40;0.40;;;;;;;0.09;61.59;99335.94;5053279;28;20045;-65
2021/09/28 00:31:54;;;;;;;0.30;0.30;;;;;;;0.02;61.59;99341.13;5053999;28;20128;-66
2021/09/28 00:34:19;;;;;;;0.25;0.25;;;;;;;-0.01;61.70;99338.72;5053887;28;20049;-64
2021/09/28 00:36:45;;;;;;;0.30;0.30;;;;;;;-0.08;61.66;99346.56;5053269;28;20467;-66
2021/09/28 00:39:11;;;;;;;0.20;0.20;;;;;;;-0.12;61.84;99338.94;5053256;28;20480;-65
2021/09/28 00:41:37;;;;;;;0.40;0.40;;;;;;;-0.19;61.90;99339.56;5053209;28;20041;-65
2021/09/28 00:44:03;;;;;;;0.60;0.60;;;;;;;-0.25;61.87;99344.72;5058012;28;20044;-65
2021/09/28 00:46:28;;;;;;;0.25;0.25;;;;;;;-0.30;62.10;99347.88;5073281;28;20047;-64
2021/09/28 00:48:54;;;;;;;0.22;0.22;;;;;;;-0.36;62.24;99341.22;5073382;28;20127;-65
2021/09/28 00:51:21;;;;;;;0.32;0.32;;;;;;;-0.41;62.29;99330.06;5055143;28;20482;-65
2021/09/28 00:53:50;;;;;;;0.30;0.30;;;;;;;-0.47;62.07;99336.06;5073424;28;20044;-66
2021/09/28 00:56:18;;;;;;;0.40;0.40;;;;;;;-0.50;62.35;99343.59;5073276;28;20043;-63
2021/09/28 00:58:44;;;;;;;0.30;0.30;;;;;;;-0.55;62.32;99338.66;5072936;28;20077;-64
2021/09/28 01:01:12;;;;;;;0.20;0.20;;;;;;;-0.59;62.62;99348.03;5073022;28;20087;-64
2021/09/28 01:03:38;;;;;;;0.22;0.22;;;;;;;-0.62;62.51;99342.94;5072931;28;20063;-63
2021/09/28 01:06:05;;;;;;;0.40;0.40;;;;;;;-0.66;62.67;99341.53;5072365;28;20044;-64
2021/09/28 01:08:30;;;;;;;0.45;0.30;;;;;;;-0.71;62.73;99333.91;5073155;28;20457;-64
2021/09/28 01:10:57;;;;;;;1.65;0.68;;;;;;;-0.72;62.78;99338.44;5072773;28;20045;-63
2021/09/28 01:13:24;;;;;;;0.47;0.47;;;;;;;-0.75;62.80;99332.50;5072983;28;20045;-64
2021/09/28 01:15:58;;;;;;;0.20;0.20;;;;;;;-0.80;62.71;99341.03;5072962;28;20048;-62
2021/09/28 01:18:28;;;;;;;0.30;0.30;;;;;;;-0.84;62.85;99328.88;5072602;28;20078;-62
2021/09/28 01:20:54;;;;;;;0.30;0.30;;;;;;;-0.89;62.88;99341.94;5072486;28;20079;-63
2021/09/28 01:23:20;;;;;;;0.30;0.30;;;;;;;-0.92;63.08;99334.16;5072407;28;20083;-64
2021/09/28 01:25:46;;;;;;;0.30;0.30;;;;;;;-0.96;62.96;99340.81;5072391;28;20036;-62
2021/09/28 01:28:12;;;;;;;0.30;0.30;;;;;;;-0.95;63.00;99339.84;5072292;28;20490;-62
2021/09/28 01:30:38;;;;;;;0.30;0.30;;;;;;;-0.98;62.94;99342.84;5072154;28;20414;-60
2021/09/28 01:33:03;;;;;;;0.30;0.30;;;;;;;-1.02;62.93;99336.03;5072537;28;20101;-61
2021/09/28 01:35:29;;;;;;;0.20;0.20;;;;;;;-1.04;63.16;99341.56;5069245;28;20055;-62
2021/09/28 01:37:56;;;;;;;0.20;0.20;;;;;;;-1.07;62.87;99337.31;5072384;28;20399;-63
2021/09/28 01:40:22;;;;;;;0.20;0.20;;;;;;;-1.09;63.12;99338.44;5072221;28;20044;-63
2021/09/28 01:42:48;;;;;;;0.30;0.30;;;;;;;-1.08;63.19;99337.47;5072589;28;20047;-65
2021/09/28 01:45:14;;;;;;;0.20;0.20;;;;;;;-1.10;63.36;99336.78;5054428;28;20064;-63
2021/09/28 01:47:40;;;;;;;0.40;0.40;;;;;;;-1.12;63.30;99346.81;5072044;28;20083;-64
2021/09/28 01:50:07;;;;;;;0.25;0.25;;;;;;;-1.15;63.21;99336.34;5072293;28;20045;-63
2021/09/28 01:52:34;;;;;;;0.20;0.20;;;;;;;-1.18;63.25;99337.47;5072406;28;20067;-63
2021/09/28 01:55:00;;;;;;;0.22;0.22;;;;;;;-1.16;63.29;99343.59;5070028;28;20039;-64
2021/09/28 01:57:26;;;;;;;0.30;0.30;;;;;;;-1.18;63.42;99336.66;5062891;28;20037;-64
2021/09/28 01:59:52;;;;;;;3.22;0.80;;;;;;;-1.20;63.33;99334.09;5060458;28;20056;-63
2021/09/28 02:02:17;;;;;;;0.30;0.30;;;;;;;-1.21;63.46;99334.25;5061361;28;20115;-65
2021/09/28 02:04:43;;;;;;;0.30;0.30;;;;;;;-1.21;63.33;99353.09;5060402;28;20044;-63
2021/09/28 02:07:09;;;;;;;0.50;0.50;;;;;;;-1.24;63.34;99340.78;5059893;28;20041;-62
2021/09/28 02:09:34;;;;;;;0.20;0.20;;;;;;;-1.22;63.49;99341.50;5051826;28;20037;-64
2021/09/28 02:12:00;;;;;;;0.30;0.30;;;;;;;-1.23;63.33;99345.16;5052356;28;20076;-68
2021/09/28 02:14:28;;;;;;;0.30;0.30;;;;;;;-1.24;63.27;99348.84;5050948;28;20058;-67
2021/09/28 02:16:55;;;;;;;0.30;0.30;;;;;;;-1.21;63.27;99350.41;5050926;28;20094;-64
2021/09/28 02:19:21;;;;;;;0.30;0.30;;;;;;;-1.21;63.44;99358.50;5052002;28;20048;-64
2021/09/28 02:21:47;;;;;;;0.30;0.30;;;;;;;-1.24;63.43;99355.09;5051638;28;20053;-64
2021/09/28 02:24:12;;;;;;;0.45;0.40;;;;;;;-1.24;63.40;99363.19;5052075;28;20044;-65
2021/09/28 02:26:39;;;;;;;0.20;0.20;;;;;;;-1.22;63.42;99365.75;5051931;28;20454;-64
2021/09/28 02:29:05;;;;;;;0.43;0.43;;;;;;;-1.19;63.31;99360.06;5051624;28;20048;-64
2021/09/28 02:31:31;;;;;;;0.38;0.38;;;;;;;-1.19;63.38;99360.06;5052086;28;20037;-65
2021/09/28 02:33:57;;;;;;;0.30;0.30;;;;;;;-1.18;63.39;99361.72;5051586;28;20121;-64
2021/09/28 02:36:23;;;;;;;0.20;0.20;;;;;;;-1.18;63.39;99369.81;5052002;28;20073;-64
2021/09/28 02:38:48;;;;;;;0.63;0.35;;;;;;;-1.18;63.59;99364.44;5055872;28;20041;-65
2021/09/28 02:41:15;;;;;;;0.20;0.20;;;;;;;-1.15;63.42;99368.69;5055633;28;20036;-64
2021/09/28 02:43:40;;;;;;;0.20;0.20;;;;;;;-1.13;63.31;99372.09;5055729;28;20049;-63
2021/09/28 02:46:06;;;;;;;0.20;0.20;;;;;;;-1.11;63.24;99365.53;5055264;28;20461;-64
2021/09/28 02:48:32;;;;;;;0.20;0.20;;;;;;;-1.11;63.18;99370.94;5055543;28;20044;-64
2021/09/28 02:50:58;;;;;;;0.22;0.22;;;;;;;-1.07;63.32;99375.03;5055497;28;20041;-64
2021/09/28 02:53:24;;;;;;;0.20;0.20;;;;;;;-1.06;63.09;99368.66;5055465;28;20093;-63
2021/09/28 02:55:50;;;;;;;0.20;0.20;;;;;;;-1.04;63.17;99375.78;5055091;28;20458;-63
2021/09/28 02:58:16;;;;;;;0.30;0.30;;;;;;;-0.99;63.05;99378.84;5055068;28;20036;-66
2021/09/28 03:00:41;;;;;;;0.60;0.60;;;;;;;-0.99;63.09;99379.69;5054937;28;20045;-64
2021/09/28 03:03:07;;;;;;;0.25;0.25;;;;;;;-0.95;63.13;99382.97;5055051;28;20037;-64
2021/09/28 03:05:33;;;;;;;0.22;0.22;;;;;;;-0.90;63.14;99384.22;5058010;28;20502;-63
2021/09/28 03:08:00;;;;;;;0.20;0.20;;;;;;;-0.71;62.68;99385.13;5075329;28;20049;-63
2021/09/28 03:10:26;;;;;;;0.20;0.20;;;;;;;1.17;59.16;99376.28;5075366;28;20400;-63
2021/09/28 03:12:52;;;;;;;1.65;0.63;;;;;;;3.90;53.37;99370.75;5074920;28;20410;-64
2021/09/28 03:15:18;;;;;;;0.20;0.20;;;;;;;6.10;49.56;99380.75;5074929;28;20044;-63
2021/09/28 03:17:44;;;;;;;0.55;0.55;;;;;;;7.59;47.48;99374.44;5057045;28;20465;-64
2021/09/28 03:20:10;;;;;;;0.30;0.30;;;;;;;8.84;46.18;99376.13;5075217;28;20060;-64
2021/09/28 03:22:36;;;;;;;0.40;0.40;;;;;;;9.65;45.60;99377.72;5074859;28;20495;-65
2021/09/28 03:25:02;;;;;;;0.30;0.30;;;;;;;8.24;48.54;99374.09;5074619;28;20050;-64
2021/09/28 03:27:28;;;;;;;0.30;0.30;;;;;;;6.07;53.53;99386.59;5074731;28;20049;-64
2021/09/28 03:29:54;;;;;;;0.20;0.20;;;;;;;4.36;57.68;99391.69;5073865;28;20406;-64
2021/09/28 03:32:19;;;;;;;0.25;0.25;;;;;;;3.15;60.59;99389.16;5074461;28;20040;-64
2021/09/28 03:34:45;;;;;;;0.20;0.20;;;;;;;2.40;62.14;99394.78;5074763;28;20550;-65
2021/09/28 03:37:11;;;;;;;0.20;0.20;;;;;;;1.83;63.24;99390.94;5074574;28;20041;-64
2021/09/28 03:39:37;;;;;;;0.30;0.30;;;;;;;1.47;63.69;99401.09;5074857;28;20079;-63
2021/09/28 03:42:03;;;;;;;0.30;0.30;;;;;;;1.14;64.02;99392.81;5074102;28;20071;-63
2021/09/28 03:44:28;;;;;;;0.20;0.20;;;;;;;0.91;64.16;99400.63;5074151;28;20094;-63
2021/09/28 03:46:54;;;;;;;0.30;0.30;;;;;;;0.80;63.81;99399.84;5074337;28;20040;-63
2021/09/28 03:49:20;;;;;;;1.25;0.73;;;;;;;0.75;63.73;99412.16;5074412;28;20402;-63
2021/09/28 03:51:46;;;;;;;0.45;0.45;;;;;;;0.69;63.39;99406.38;5074361;28;20037;-63
2021/09/28 03:54:11;;;;;;;0.30;0.30;;;;;;;0.64;63.22;99415.97;5074593;28;20037;-63
2021/09/28 03:56:37;;;;;;;0.30;0.30;;;;;;;0.63;63.09;99409.72;5074577;28;20048;-64
2021/09/28 03:59:03;;;;;;;0.30;0.30;;;;;;;0.63;62.82;99420.53;5073784;28;20063;-63
2021/09/28 04:01:29;;;;;;;0.60;0.60;;;;;;;0.62;62.77;99408.00;5074071;28;20080;-63
2021/09/28 04:03:54;;;;;;;0.60;0.60;;;;;;;0.66;62.49;99404.00;5074637;28;20094;-63
2021/09/28 04:06:20;;;;;;;0.20;0.20;;;;;;;0.69;62.17;99409.09;5074052;28;20057;-63
2021/09/28 04:08:46;;;;;;;0.65;0.65;;;;;;;0.74;62.14;99411.31;5074193;28;20037;-62
2021/09/28 04:11:11;;;;;;;0.20;0.20;;;;;;;0.77;61.82;99408.28;5074182;28;20040;-63
2021/09/28 04:13:40;;;;;;;0.22;0.22;;;;;;;0.78;61.79;99406.44;5074134;28;20127;-63
2021/09/28 04:16:07;;;;;;;0.25;0.25;;;;;;;0.83;61.57;99412.22;5074070;28;20075;-63
2021/09/28 04:18:33;;;;;;;0.20;0.20;;;;;;;1.00;61.24;99410.47;5073781;28;20127;-64
2021/09/28 04:20:59;;;;;;;0.45;0.45;;;;;;;1.28;60.28;99408.47;5074042;28;20450;-63
2021/09/28 04:23:25;;;;;;;0.30;0.30;;;;;;;1.64;59.57;99402.88;5074086;28;20041;-64
2021/09/28 04:25:51;;;;;;;0.20;0.20;;;;;;;2.00;58.71;99394.53;5055612;28;20399;-64
2021/09/28 04:28:17;;;;;;;0.20;0.20;;;;;;;2.44;57.83;99405.13;5072915;28;20041;-63
2021/09/28 04:30:43;;;;;;;0.30;0.30;;;;;;;2.75;57.51;99401.75;5073300;28;20041;-62
2021/09/28 04:33:09;;;;;;;0.40;0.40;;;;;;;2.89;57.37;99381.22;5073383;28;20089;-63
2021/09/28 04:35:35;;;;;;;0.60;0.60;;;;;;;3.06;57.03;99387.50;5073515;28;20503;-62
2021/09/28 04:38:01;;;;;;;0.20;0.20;;;;;;;3.14;57.18;99384.75;5073771;28;20037;-63
2021/09/28 04:40:27;;;;;;;0.20;0.20;;;;;;;3.23;57.00;99385.56;5073321;28;20488;-63
2021/09/28 04:42:52;;;;;;;0.30;0.30;;;;;;;3.32;57.10;99381.81;5073258;28;20043;-63
2021/09/28 04:45:19;;;;;;;0.22;0.22;;;;;;;3.49;56.88;99388.06;5073365;28;20062;-62
2021/09/28 04:47:44;;;;;;;0.28;0.28;;;;;;;3.51;57.05;99387.88;5073374;28;20094;-63
2021/09/28 04:50:10;;;;;;;0.20;0.20;;;;;;;3.64;56.83;99385.44;5073426;28;20040;-62
2021/09/28 04:52:36;;;;;;;0.30;0.30;;;;;;;3.76;56.95;99382.34;5073529;28;20540;-62
2021/09/28 04:55:04;;;;;;;0.30;0.30;;;;;;;3.86;56.87;99372.13;5073062;28;20047;-62
2021/09/28 04:57:30;;;;;;;1.38;0.57;;;;;;;3.93;56.69;99375.81;5072858;28;20044;-64
2021/09/28 04:59:56;;;;;;;0.40;0.40;;;;;;;3.96;56.85;99377.31;5071996;28;20048;-63
2021/09/28 05:02:22;;;;;;;0.30;0.30;;;;;;;3.96;56.85;99366.44;5073550;28;20045;-63
2021/09/28 05:04:47;;;;;;;0.30;0.30;;;;;;;4.14;56.67;99369.75;5071877;28;20079;-64
2021/09/28 05:07:13;;;;;;;0.20;0.20;;;;;;;4.20;56.67;99363.59;5062042;28;20505;-65
2021/09/28 05:09:39;;;;;;;0.20;0.20;;;;;;;4.38;56.24;99376.03;5060911;28;20043;-63
2021/09/28 05:12:06;;;;;;;0.20;0.20;;;;;;;4.34;56.48;99369.25;5061860;28;20051;-62
2021/09/28 05:14:32;;;;;;;0.20;0.20;;;;;;;4.44;56.47;99375.31;5060327;28;20086;-63
2021/09/28 05:16:58;;;;;;;0.60;0.60;;;;;;;4.45;56.41;99377.00;5061668;28;20040;-62
2021/09/28 05:19:25;;;;;;;0.30;0.30;;;;;;;4.50;56.28;99369.13;5061914;28;20052;-63
2021/09/28 05:21:51;;;;;;;0.85;0.50;;;;;;;4.64;56.07;99366.66;5060173;28;20051;-65
2021/09/28 05:24:17;;;;;;;0.43;0.43;;;;;;;4.74;55.92;99367.25;5061402;28;20047;-65
2021/09/28 05:26:42;;;;;;;0.25;0.25;;;;;;;4.81;55.84;99360.03;5061400;28;20041;-65
2021/09/28 05:29:08;;;;;;;0.60;0.60;;;;;;;4.77;55.94;99363.31;5057811;28;20052;-65
2021/09/28 05:31:34;;;;;;;0.40;0.40;;;;;;;4.48;56.55;99357.59;5059181;28;20091;-65
2021/09/28 05:33:59;;;;;;;0.20;0.20;;;;;;;4.19;57.30;99366.47;5061128;28;20518;-65
2021/09/28 05:36:25;;;;;;;0.30;0.30;;;;;;;4.05;57.69;99370.81;5061935;28;20045;-67
2021/09/28 05:38:51;;;;;;;0.20;0.20;;;;;;;4.08;57.48;99372.31;5060039;28;20045;-66
2021/09/28 05:41:17;;;;;;;0.40;0.40;;;;;;;4.24;57.07;99365.94;5061342;28;20394;-66
2021/09/28 05:43:43;;;;;;;0.30;0.30;;;;;;;4.49;56.58;99356.59;5061180;28;20091;-67
2021/09/28 05:46:09;;;;;;;0.28;0.28;;;;;;;4.85;55.85;99366.81;5060038;28;20123;-66
2021/09/28 05:48:35;;;;;;;0.20;0.20;;;;;;;5.16;55.37;99359.56;5062070;28;20042;-66
2021/09/28 05:51:01;;;;;;;0.20;0.20;;;;;;;5.45;54.71;99361.44;5060854;28;20410;-66
2021/09/28 05:53:34;;;;;;;0.20;0.20;;;;;;;5.57;54.53;99351.75;5059841;28;20041;-65
2021/09/28 05:55:59;;;;;;;0.40;0.40;;;;;;;5.51;54.60;99352.50;5051042;28;20402;-66
2021/09/28 05:58:25;;;;;;;0.98;0.40;;;;;;;5.42;55.05;99350.94;5060916;28;20043;-66
2021/09/28 06:00:51;;;;;;;0.85;0.73;;;;;;;5.46;55.13;99351.38;5059533;28;20041;-63
2021/09/28 06:03:17;;;;;;;0.35;0.35;;;;;;;5.47;55.18;99355.81;5061472;28;20036;-64
2021/09/28 06:05:42;;;;;;;0.20;0.20;;;;;;;5.62;54.94;99348.44;5063438;28;20060;-63
2021/09/28 06:08:08;;;;;;;0.40;0.40;;;;;;;5.81;54.56;99349.75;5070550;28;20040;-64
2021/09/28 06:14:36;;;;;;;0.50;0.50;;;;;;;5.94;54.19;99344.44;5059484;28;20043;-62
2021/09/28 06:17:42;;;;;;;0.20;0.20;;;;;;;5.92;54.25;99351.97;5073687;28;20040;-65
2021/09/28 06:20:27;;;;;;;;;;;;;;;5.82;54.48;99359.63;5069132;28;20483;-64
2021/09/28 06:23:33;;;;;;;0.35;0.35;;;;;;;5.81;54.54;99354.34;5070118;28;19916;-64
2021/09/28 06:26:38;;;;;;;0.30;0.30;;;;;;;5.91;54.43;99353.00;5072574;28;20109;-64
2021/09/28 06:29:23;;;;;;;;;;;;;;;5.88;54.27;99356.13;5054061;28;20037;-65
2021/09/28 06:35:51;;;;;;;0.20;0.20;;;;;;;5.64;54.72;99361.88;5065565;28;20051;-65
2021/09/28 06:38:57;;;;;;;0.30;0.30;;;;;;;5.70;54.68;99353.81;5068603;28;20045;-66
2021/09/28 06:42:02;;;;;;;0.30;0.30;;;;;;;5.77;54.49;99348.41;5073632;28;20045;-66
2021/09/28 06:45:08;;;;;;;0.43;0.43;;;;;;;5.89;54.28;99356.94;5067940;28;20102;-66
2021/09/28 06:54:59;;;;;;;0.20;0.20;;;;;;;6.03;54.08;99358.00;5064491;28;20805;-66
2021/09/28 06:57:45;;;;;;;;;;;;;;;6.01;54.07;99360.94;5051489;28;20517;-64
2021/09/28 07:00:51;;;;;;;0.20;0.20;;;;;;;5.99;54.11;99360.25;5067012;28;20015;-63
2021/09/28 07:03:56;;;;;;;0.25;0.25;;;;;;;6.01;54.15;99355.47;5054492;28;20078;-65
2021/09/28 07:07:02;;;;;;;0.43;0.43;;;;;;;6.07;53.94;99367.50;5069685;28;20102;-65
2021/09/28 07:10:07;;;;;;;0.20;0.20;;;;;;;6.02;54.07;99372.66;5069489;28;20457;-62
2021/09/28 07:12:53;;;;;;;;;;;;;;;6.00;54.24;99359.22;5070176;28;20043;-64
2021/09/28 07:19:20;;;;;;;0.20;0.20;;;;;;;6.12;53.77;99356.84;5067933;28;20070;-65
2021/09/28 07:22:26;;;;;;;0.20;0.20;;;;;;;6.05;53.97;99358.66;5065669;28;20105;-68
2021/09/28 07:25:32;;;;;;;0.20;0.20;;;;;;;5.97;54.08;99357.72;5071659;28;20041;-64
2021/09/28 07:28:37;;;;;;;0.20;0.20;;;;;;;5.95;54.09;99351.59;5053173;28;20077;-65
2021/09/28 07:31:43;;;;;;;0.20;0.20;;;;;;;5.99;53.96;99352.06;5063669;28;20051;-64
2021/09/28 07:34:48;;;;;;;0.25;0.25;;;;;;;5.96;53.85;99358.75;5066176;28;20032;-64
2021/09/28 07:37:54;;;;;;;0.70;0.50;;;;;;;5.84;53.99;99360.25;5064343;28;20540;-64
2021/09/28 07:40:59;;;;;;;0.28;0.28;;;;;;;5.74;54.13;99357.84;5065873;28;20406;-62
2021/09/28 07:44:05;;;;;;;0.43;0.35;;;;;;;5.73;54.21;99363.50;5061933;28;20123;-63
2021/09/28 07:46:50;;;;;;;;;;;;;;;5.73;54.14;99368.94;5065757;28;20399;-66
2021/09/28 07:53:17;;;;;;;0.20;0.20;;;;;;;5.73;53.92;99368.94;5062424;28;20131;-65
2021/09/28 08:03:09;;;;;;;0.20;0.20;;;;;;;5.72;53.85;99368.06;5063288;28;20411;-63
2021/09/28 08:06:14;;;;;;;0.30;0.30;;;;;;;5.58;54.04;99366.19;5058169;28;20063;-62
2021/09/28 08:09:20;;;;;;;0.38;0.38;;;;;;;5.49;54.20;99353.72;5061640;28;20040;-66
2021/09/28 08:12:05;;;;;;;;;;;;;;;5.49;54.15;99357.31;5053302;28;20604;-62
2021/09/28 08:15:11;;;;;;;0.20;0.20;;;;;;;5.50;53.89;99353.53;5050381;28;19921;-63
2021/09/28 08:31:51;;;;;;;0.20;0.20;;;;;;;5.47;53.70;99343.00;5062562;28;20106;-64
2021/09/28 08:38:21;;;;;;;0.20;0.20;;;;;;;5.52;53.69;99351.47;5054549;28;20043;-65
2021/09/28 08:41:26;;;;;;;0.20;0.20;;;;;;;5.52;53.54;99342.44;5060083;28;20139;-63
2021/09/28 08:44:31;;;;;;;0.22;0.22;;;;;;;5.53;53.51;99339.53;5060434;28;20044;-63
2021/09/28 08:47:37;;;;;;;0.25;0.25;;;;;;;5.50;53.61;99339.06;5061872;28;20044;-61
2021/09/28 08:50:42;;;;;;;0.40;0.40;;;;;;;5.52;53.40;99335.13;5057979;28;20072;-64
2021/09/28 08:53:48;;;;;;;0.40;0.40;;;;;;;5.55;53.40;99326.59;5060766;28;20041;-64
2021/09/28 08:56:33;;;;;;;;;;;;;;;5.53;53.41;99325.91;5062393;28;20489;-66
2021/09/28 08:59:39;;;;;;;0.30;0.30;;;;;;;5.69;53.14;99318.56;5061480;28;20384;-64
2021/09/28 09:14:40;;;;;;;0.20;0.20;;;;;;;6.24;52.18;99319.88;5053144;28;20114;-62
2021/09/28 09:17:06;;;;;;;0.20;0.20;;;;;;;6.35;52.03;99306.75;5050410;28;20507;-64
2021/09/28 09:19:32;;;;;;;0.20;0.20;;;;;;;6.49;51.82;99303.94;5053912;28;20115;-62
2021/09/28 09:22:00;;;;;;;0.22;0.22;;;;;;;6.59;51.78;99291.84;5051489;28;20453;-63
2021/09/28 09:24:45;;;;;;;0.30;0.30;;;;;;;6.72;51.47;99294.66;5052411;28;20147;-63
2021/09/28 09:27:14;;;;;;;0.60;0.60;;;;;;;6.73;51.61;99293.63;5042246;28;20058;-65
2021/09/28 09:29:40;;;;;;;0.30;0.30;;;;;;;6.89;51.37;99294.38;5054136;28;20037;-65
2021/09/28 09:32:07;;;;;;;0.30;0.30;;;;;;;6.92;51.43;99292.09;5043666;28;20461;-63
2021/09/28 09:34:33;;;;;;;0.22;0.22;;;;;;;6.91;51.54;99304.06;5050137;28;20527;-64
2021/09/28 09:37:05;;;;;;;0.20;0.20;;;;;;;6.83;51.58;99293.28;5052034;28;20177;-63
2021/09/28 09:39:54;;;;;;;0.30;0.30;;;;;;;6.83;51.79;99294.13;5064923;28;20494;-62
2021/09/28 09:42:20;;;;;;;0.85;0.43;;;;;;;6.95;51.59;99297.16;5068090;28;20047;-65
2021/09/28 09:44:46;;;;;;;0.55;0.55;;;;;;;7.04;51.28;99297.84;5061598;28;20036;-64
2021/09/28 09:47:30;;;;;;;0.20;0.20;;;;;;;7.09;51.28;99295.34;5050293;28;20407;-65
2021/09/28 09:50:11;;;;;;;0.20;0.20;;;;;;;6.97;51.52;99283.31;5051065;28;20040;-64
2021/09/28 09:52:46;;;;;;;0.20;0.20;;;;;;;6.88;51.69;99296.25;5070045;28;20525;-66
2021/09/28 09:55:26;;;;;;;0.20;0.20;;;;;;;6.77;51.87;99289.47;5050946;28;20047;-66
2021/09/28 09:57:52;;;;;;;0.20;0.20;;;;;;;6.74;51.87;99294.47;5060979;28;20051;-64
2021/09/28 10:00:19;;;;;;;0.20;0.20;;;;;;;6.78;51.78;99284.84;5049695;28;20144;-64
2021/09/28 10:02:46;;;;;;;0.20;0.20;;;;;;;6.95;51.46;99288.97;5050502;28;20033;-63
2021/09/28 10:05:11;;;;;;;0.20;0.20;;;;;;;7.05;51.31;99287.75;5053758;28;20048;-62
2021/09/28 10:07:38;;;;;;;0.95;0.93;;;;;;;7.10;51.19;99296.22;5050308;28;20534;-62
2021/09/28 10:10:08;;;;;;;0.30;0.30;;;;;;;7.14;51.19;99281.09;5057735;28;20132;-64
2021/09/28 10:12:38;;;;;;;0.20;0.20;;;;;;;7.17;50.99;99284.28;5069819;28;20037;-64
2021/09/28 10:15:12;;;;;;;0.22;0.22;;;;;;;7.16;51.09;99279.84;5063239;28;20059;-64
2021/09/28 10:17:43;;;;;;;0.30;0.30;;;;;;;7.10;51.17;99277.94;5069801;28;20080;-63
2021/09/28 10:20:21;;;;;;;0.20;0.20;;;;;;;7.07;51.18;99272.88;5069579;28;20134;-64
2021/09/28 10:22:54;;;;;;;0.20;0.20;;;;;;;7.11;51.10;99278.75;5070131;28;20040;-67
2021/09/28 10:25:22;;;;;;;0.30;0.30;;;;;;;7.11;51.22;99306.06;5069936;28;20048;-65
2021/09/28 10:27:50;;;;;;;0.20;0.20;;;;;;;7.10;51.03;99285.28;5069454;28;20052;-65
2021/09/28 10:30:40;;;;;;;0.20;0.20;;;;;;;7.11;50.97;99285.09;5069832;28;20044;-70
2021/09/28 10:33:21;;;;;;;0.28;0.28;;;;;;;7.13;50.96;99285.72;5059459;28;20045;-65
2021/09/28 10:36:05;;;;;;;0.20;0.20;;;;;;;7.13;50.71;99287.63;5064507;28;20128;-64
2021/09/28 10:38:54;;;;;;;0.45;0.45;;;;;;;7.11;50.90;99284.22;5060239;28;20533;-64
2021/09/28 10:41:29;;;;;;;0.28;0.28;;;;;;;7.15;50.64;99280.88;5058345;28;20059;-65
2021/09/28 10:44:24;;;;;;;1.02;0.45;;;;;;;7.15;50.63;99272.69;5056630;28;20047;-66
2021/09/28 10:46:50;;;;;;;0.27;0.27;;;;;;;7.14;50.60;99275.63;5056124;28;20041;-65
2021/09/28 10:49:26;;;;;;;0.35;0.35;;;;;;;7.13;50.63;99273.97;5057588;28;20267;-65
2021/09/28 10:52:21;;;;;;;0.35;0.35;;;;;;;7.16;50.64;99270.81;5048737;28;20039;-63
2021/09/28 10:55:13;;;;;;;0.20;0.20;;;;;;;7.23;50.21;99266.25;5051662;28;20371;-64
2021/09/28 10:57:54;;;;;;;0.75;0.65;;;;;;;7.33;50.30;99260.38;5034963;28;20064;-65
2021/09/28 11:00:42;;;;;;;0.25;0.22;;;;;;;7.42;49.92;99274.72;5066702;28;20110;-63
2021/09/28 11:03:09;;;;;;;0.38;0.38;;;;;;;7.33;50.10;99277.66;5066042;28;20052;-64
2021/09/28 11:05:38;;;;;;;0.20;0.20;;;;;;;7.22;50.38;99264.56;5063625;28;20044;-65
2021/09/28 11:08:05;;;;;;;0.30;0.30;;;;;;;7.21;50.23;99267.47;5047381;28;20526;-64
2021/09/28 11:10:32;;;;;;;0.20;0.20;;;;;;;7.25;50.30;99268.78;5061706;28;20051;-65
2021/09/28 11:12:59;;;;;;;0.45;0.25;;;;;;;7.26;50.06;99265.84;5061958;28;20044;-66
2021/09/28 11:15:28;;;;;;;0.30;0.30;;;;;;;7.27;50.00;99286.63;5061245;28;20048;-66
2021/09/28 11:17:53;;;;;;;0.20;0.20;;;;;;;7.19;50.14;99267.69;5064921;28;20052;-62
2021/09/28 11:20:20;;;;;;;0.52;0.30;;;;;;;7.18;50.18;99266.00;5060621;28;20058;-62
2021/09/28 11:23:04;;;;;;;1.27;0.73;;;;;;;7.23;49.91;99266.25;5052361;28;20038;-64
2021/09/28 11:25:34;;;;;;;0.20;0.20;;;;;;;7.12;50.02;99269.53;5065668;28;20463;-64
2021/09/28 11:28:14;;;;;;;0.22;0.22;;;;;;;7.08;50.15;99260.06;5052394;28;20036;-64
2021/09/28 11:30:51;;;;;;;0.20;0.20;;;;;;;7.12;50.10;99267.63;5063188;28;20033;-62
2021/09/28 11:33:17;;;;;;;4.47;0.60;;;;;;;7.12;49.90;99269.53;5061527;28;20161;-63
2021/09/28 11:36:02;;;;;;;0.22;0.22;;;;;;;7.14;49.93;99268.28;5068137;28;20072;-63
2021/09/28 11:38:34;;;;;;;0.20;0.20;;;;;;;7.21;49.77;99267.47;5063643;28;20045;-62
2021/09/28 11:41:11;;;;;;;0.20;0.20;;;;;;;7.21;49.76;99260.13;5063162;28;20053;-64
2021/09/28 11:43:39;;;;;;;0.32;0.32;;;;;;;7.21;49.72;99251.94;5065097;28;20082;-63
2021/09/28 11:46:07;;;;;;;0.30;0.30;;;;;;;7.23;49.66;99254.44;5062372;28;20064;-63
2021/09/28 11:48:36;;;;;;;0.88;0.52;;;;;;;7.23;49.49;99252.59;5058348;28;20041;-66
2021/09/28 11:51:12;;;;;;;0.15;0.15;;;;;;;7.21;49.57;99251.94;5061536;28;20051;-64
2021/09/28 11:53:39;;;;;;;0.20;0.20;;;;;;;7.18;49.61;99269.59;5061470;28;20065;-63
2021/09/28 11:56:07;;;;;;;0.25;0.25;;;;;;;7.09;49.63;99261.75;5064351;28;20556;-62
2021/09/28 11:58:38;;;;;;;1.77;0.40;;;;;;;7.01;49.76;99249.94;5044263;28;20090;-64
2021/09/28 12:01:08;;;;;;;0.40;0.40;;;;;;;7.01;49.71;99247.22;5052107;28;20615;-64
2021/09/28 12:03:35;;;;;;;0.10;0.10;;;;;;;7.00;49.88;99261.06;5071962;28;20052;-63
2021/09/28 12:06:07;;;;;;;0.32;0.32;;;;;;;6.95;49.68;99253.47;5070301;28;20086;-62
2021/09/28 12:08:33;;;;;;;0.20;0.20;;;;;;;6.91;49.68;99254.09;5069620;28;20039;-64
2021/09/28 12:11:04;;;;;;;0.20;0.20;;;;;;;6.88;49.70;99249.84;5067975;28;20449;-65
2021/09/28 12:13:31;;;;;;;0.20;0.20;;;;;;;6.82;49.74;99251.50;5071790;28;20518;-61
2021/09/28 12:16:09;;;;;;;0.20;0.20;;;;;;;6.80;49.72;99250.00;5069315;28;20131;-63
2021/09/28 12:18:36;;;;;;;1.02;0.40;;;;;;;6.75;49.75;99250.59;5072347;28;20041;-64
2021/09/28 12:21:18;;;;;;;0.20;0.20;;;;;;;6.72;49.76;99252.91;5071588;28;20124;-62
2021/09/28 12:23:44;;;;;;;0.20;0.20;;;;;;;6.70;49.80;99258.56;5072139;28;20510;-65
2021/09/28 12:26:25;;;;;;;0.30;0.30;;;;;;;6.65;49.55;99247.38;5071565;28;20060;-62
2021/09/28 12:28:51;;;;;;;0.20;0.20;;;;;;;6.62;49.74;99240.44;5071569;28;20044;-65
2021/09/28 12:31:30;;;;;;;0.20;0.20;;;;;;;6.65;49.48;99253.69;5071870;28;20063;-65
2021/09/28 12:33:57;;;;;;;0.20;0.20;;;;;;;6.60;49.52;99239.81;5071551;28;20040;-67
2021/09/28 12:36:23;;;;;;;0.30;0.30;;;;;;;6.60;49.49;99252.59;5071488;28;20037;-67
2021/09/28 12:38:49;;;;;;;0.20;0.20;;;;;;;6.57;49.57;99251.13;5071581;28;20094;-67
2021/09/28 12:41:15;;;;;;;0.20;0.20;;;;;;;6.54;49.67;99248.78;5071387;28;20044;-66
2021/09/28 12:43:40;;;;;;;0.35;0.35;;;;;;;6.53;49.61;99247.09;5071283;28;20445;-65
2021/09/28 12:46:08;;;;;;;0.30;0.30;;;;;;;6.50;49.74;99250.22;5053919;28;20058;-67
2021/09/28 12:48:35;;;;;;;0.22;0.22;;;;;;;6.46;49.79;99246.19;5069120;28;20044;-67
2021/09/28 12:51:04;;;;;;;0.20;0.20;;;;;;;6.43;49.77;99243.84;5071291;28;20040;-68
2021/09/28 12:53:30;;;;;;;0.30;0.30;;;;;;;6.41;49.65;99246.78;5071525;28;20043;-62
2021/09/28 12:55:56;;;;;;;0.90;0.68;;;;;;;6.41;49.76;99246.78;5071718;28;20070;-63
2021/09/28 12:58:22;;;;;;;0.20;0.20;;;;;;;6.43;49.70;99243.84;5069963;28;20037;-61
2021/09/28 13:00:50;;;;;;;0.43;0.40;;;;;;;6.46;49.67;99248.91;5069734;28;20044;-64
2021/09/28 13:03:18;;;;;;;0.20;0.20;;;;;;;6.44;49.75;99248.28;5070449;28;20036;-64
2021/09/28 13:05:49;;;;;;;0.20;0.20;;;;;;;6.39;49.87;99246.16;5070878;28;20482;-64